Cardigan, United Kingdom
Current Conditions -  °F | °C
As of 12:50 AM on Friday 19 Dec 2014 (Local Time) from EGOP Reporting Station
Overcast Overcast  
Wind Chill: 12°   Ceiling: 400
Heat Index: 12°   Visibility: 1.5mi
Dew Point: 12°   Wind: 33mph
Humidity: 100%   Direction: 250°WSW
Pressure: 29.8"   Gusts: NA
Location:  52.09°N, 4.66°W
Report Text: EGOP 190050Z AUTO 25029KT 2400 // OVC004/// 12/12 Q1009
Loading
Personal Weather Stations






























Interactive Weather Map New forecast layout! Learn more

10-Day Weather Forecast

Advertisements
Track Severe Weather on mobile